DucheSS Of Scandinavia — OUZI2 — position and weather

sailwx.info

Track history (hours):
 
Tides and Currents Weather Stations Pressure Air Temp Water Temp Dewpoint Dewpoint Depression Visibility Wind Speed Wind Dir Waves Ship Positions

DucheSS Of Scandinavia

Operator: DFDS A/S

Last reported at 2016-Feb-05 19:31 UTC. Time now 2016-Feb-06 02:56 UTC.
Position N 59°05' E 010°15'.

Length 134 m; draft 5.2 m.

Type: Passenger vessel. MMSI: 219002929.

Date/timePositionNaut miles runAvg speedWind from/ knotsBaromVisibWave heightAir tempDewpointWater temp
2016-Feb-05 19:31N 59°05' E 010°15'1314.0
2016-Feb-05 18:34N 59°01' E 010°40'1515.1
2016-Feb-05 17:33N 58°56' E 011°07'1 0.5
2016-Feb-05 16:34N 58°56' E 011°06'1515.0
2016-Feb-05 15:34N 59°01' E 010°39'14 6.5
2016-Feb-05 13:22N 59°07' E 010°14'911.5
2016-Feb-05 12:34N 59°01' E 010°27'1515.1
2016-Feb-05 11:33N 59°00' E 010°56'8 8.4
2016-Feb-05 10:34N 58°56' E 011°10'5 4.5
2016-Feb-05 09:34N 58°58' E 011°02'1515.4
2016-Feb-05 08:33N 59°01' E 010°33'1211.4
2016-Feb-05 07:30N 59°07' E 010°14'1 0.7
2016-Feb-05 06:31N 59°07' E 010°14'1 0.1
2016-Feb-04 19:33N 59°05' E 010°14'1414.2
2016-Feb-04 18:33N 59°01' E 010°41'1515.0
2016-Feb-04 17:34N 58°56' E 011°08'2 1.5
2016-Feb-04 16:34N 58°56' E 011°05'1515.0
2016-Feb-04 15:33N 59°01' E 010°37'1313.0
2016-Feb-04 14:34N 59°06' E 010°14'0 0.1
2016-Feb-04 13:19N 59°06' E 010°14'811.2
2016-Feb-04 12:33N 59°01' E 010°27'1514.5
2016-Feb-04 11:33N 59°00' E 010°55'9 6.2
2016-Feb-04 10:06N 58°56' E 011°10'5 9.2
2016-Feb-04 09:33N 58°58' E 011°01'1515.2
2016-Feb-04 08:33N 59°00' E 010°32'11 1.1
2016-Feb-03 22:25N 59°06' E 010°14'2 0.8
2016-Feb-03 19:34N 59°04' E 010°15'1414.2
2016-Feb-03 18:34N 59°02' E 010°42'1514.8
2016-Feb-03 17:34N 58°56' E 011°09'3 2.8
2016-Feb-03 16:33N 58°57' E 011°04'1514.5
2016-Feb-03 15:33N 59°01' E 010°37'13 5.4
2016-Feb-03 13:12N 59°06' E 010°14'812.4
2016-Feb-03 12:34N 59°01' E 010°26'1515.0
2016-Feb-03 11:33N 59°01' E 010°55'9 9.1
2016-Feb-03 10:33N 58°56' E 011°10'5 4.5
2016-Feb-03 09:34N 58°58' E 011°02'1515.4
2016-Feb-03 08:33N 59°01' E 010°33'12 5.5
2016-Feb-03 06:26N 59°07' E 010°14'2 0.1
2016-Feb-02 13:27N 59°05' E 010°15'1010.8
2016-Feb-02 12:33N 59°01' E 010°31'1312.9
2016-Feb-02 11:34N 59°00' E 010°56'8 8.3
2016-Feb-02 10:34N 58°56' E 011°10'5 4.9
2016-Feb-02 09:33N 58°58' E 011°02'1414.4
2016-Feb-02 08:33N 59°01' E 010°34'13 1.0
2016-Feb-01 20:05N 59°08' E 010°14'3 5.8
2016-Feb-01 19:33N 59°05' E 010°15'1313.0
2016-Feb-01 18:33N 59°02' E 010°39'1515.5
2016-Feb-01 17:34N 58°56' E 011°07'2 1.5
2016-Feb-01 16:33N 58°57' E 011°05'1515.2
2016-Feb-01 15:33N 59°01' E 010°36'13 5.6
2016-Feb-01 13:14N 59°07' E 010°14'812.3
2016-Feb-01 12:34N 59°01' E 010°25'1615.9
2016-Feb-01 11:34N 59°00' E 010°56'9 7.7
2016-Feb-01 10:27N 58°56' E 011°10'5 6.0
2016-Feb-01 09:33N 58°59' E 011°01'1515.1
2016-Feb-01 08:33N 59°01' E 010°32'11 5.6
2016-Feb-01 06:32N 59°07' E 010°14'1 0.4
2016-Feb-01 05:12N 59°06' E 010°14'0 0.0
2016-Feb-01 04:28N 59°06' E 010°14'2 0.2
2016-Jan-31 19:34N 59°04' E 010°15'1414.2
2016-Jan-31 18:34N 59°01' E 010°42'1514.8
2016-Jan-31 17:34N 58°56' E 011°08'2 2.2
2016-Jan-31 16:33N 58°57' E 011°04'1515.1
2016-Jan-31 15:33N 59°01' E 010°36'12 5.1
2016-Jan-31 13:11N 59°05' E 010°15'913.5
2016-Jan-31 12:34N 59°01' E 010°29'1615.6
2016-Jan-31 11:34N 58°60' E 010°59'7 6.8
2016-Jan-31 10:34N 58°56' E 011°10'6 5.6
2016-Jan-31 09:34N 58°59' E 011°01'1514.8
2016-Jan-31 08:34N 59°00' E 010°32'10 0.8
2016-Jan-30 19:33N 59°05' E 010°15'1313.3
2016-Jan-30 18:34N 59°01' E 010°39'1515.1
2016-Jan-30 17:34N 58°56' E 011°07'2 1.6
2016-Jan-30 16:34N 58°57' E 011°04'1514.7
2016-Jan-30 15:33N 59°01' E 010°36'12 4.8
2016-Jan-30 13:05N 59°05' E 010°15'713.2
2016-Jan-30 12:33N 59°01' E 010°26'1515.0
2016-Jan-30 11:34N 59°01' E 010°55'9 9.1
2016-Jan-30 10:34N 58°56' E 011°10'7 6.7
2016-Jan-30 09:33N 58°60' E 010°59'1514.5
2016-Jan-30 08:34N 59°00' E 010°31'11 0.6
2016-Jan-29 13:16N 59°07' E 010°14'912.3
2016-Jan-29 12:33N 59°00' E 010°25'1514.7
2016-Jan-29 11:33N 59°01' E 010°53'10 9.8
2016-Jan-29 10:34N 58°56' E 011°10'6 5.9
2016-Jan-29 09:34N 58°59' E 011°01'1515.3
2016-Jan-29 08:33N 59°00' E 010°31'8 0.6
2016-Jan-28 19:31N 59°03' E 010°15'1414.5
2016-Jan-28 18:33N 59°02' E 010°42'1514.7
2016-Jan-28 17:33N 58°56' E 011°08'1 1.5
2016-Jan-28 16:34N 58°56' E 011°05'1515.3
2016-Jan-28 15:34N 59°01' E 010°37'7 2.2
2016-Jan-28 12:33N 59°01' E 010°24'1616.1
2016-Jan-28 11:34N 59°00' E 010°55'9 8.9
2016-Jan-28 10:34N 58°56' E 011°10'5 5.1
2016-Jan-28 09:34N 58°59' E 011°02'1514.9
2016-Jan-28 08:33N 59°01' E 010°33'11 0.8
2016-Jan-27 19:33N 59°05' E 010°14'1414.1
2016-Jan-27 18:34N 59°01' E 010°41'1615.7
2016-Jan-27 17:34N 58°56' E 011°09'3 2.9
2016-Jan-27 16:33N 58°57' E 011°04'1414.0
2016-Jan-27 15:33N 59°01' E 010°38'13 5.9
2016-Jan-27 13:18N 59°06' E 010°14'912.6
2016-Jan-27 12:34N 59°01' E 010°29'1414.4
2016-Jan-27 11:34N 59°00' E 010°57'8 7.7
2016-Jan-27 10:31N 58°56' E 011°10'5 5.5
2016-Jan-27 09:33N 58°59' E 011°01'1515.4
2016-Jan-27 08:33N 59°00' E 010°32'10 0.8
2016-Jan-26 19:33N 59°05' E 010°15'  
Track history (hours):
 
Tides and Currents Weather Stations Pressure Air Temp Water Temp Dewpoint Dewpoint Depression Visibility Wind Speed Wind Dir Waves Ship Positions

DucheSS Of Scandinavia

Operator: DFDS A/S

Last reported at 2016-Feb-05 19:31 UTC. Time now 2016-Feb-06 02:56 UTC.
Position N 59°05' E 010°15'.

Length 134 m; draft 5.2 m.

Type: Passenger vessel. MMSI: 219002929.

Date/timePositionNaut miles runAvg speedWind from/ knotsBaromVisibWave heightAir tempDewpointWater temp
2016-Feb-05 19:31N 59°05' E 010°15'1314.0
2016-Feb-05 18:34N 59°01' E 010°40'1515.1
2016-Feb-05 17:33N 58°56' E 011°07'1 0.5
2016-Feb-05 16:34N 58°56' E 011°06'1515.0
2016-Feb-05 15:34N 59°01' E 010°39'14 6.5
2016-Feb-05 13:22N 59°07' E 010°14'911.5
2016-Feb-05 12:34N 59°01' E 010°27'1515.1
2016-Feb-05 11:33N 59°00' E 010°56'8 8.4
2016-Feb-05 10:34N 58°56' E 011°10'5 4.5
2016-Feb-05 09:34N 58°58' E 011°02'1515.4
2016-Feb-05 08:33N 59°01' E 010°33'1211.4
2016-Feb-05 07:30N 59°07' E 010°14'1 0.7
2016-Feb-05 06:31N 59°07' E 010°14'1 0.1
2016-Feb-04 19:33N 59°05' E 010°14'1414.2
2016-Feb-04 18:33N 59°01' E 010°41'1515.0
2016-Feb-04 17:34N 58°56' E 011°08'2 1.5
2016-Feb-04 16:34N 58°56' E 011°05'1515.0
2016-Feb-04 15:33N 59°01' E 010°37'1313.0
2016-Feb-04 14:34N 59°06' E 010°14'0 0.1
2016-Feb-04 13:19N 59°06' E 010°14'811.2
2016-Feb-04 12:33N 59°01' E 010°27'1514.5
2016-Feb-04 11:33N 59°00' E 010°55'9 6.2
2016-Feb-04 10:06N 58°56' E 011°10'5 9.2
2016-Feb-04 09:33N 58°58' E 011°01'1515.2
2016-Feb-04 08:33N 59°00' E 010°32'11 1.1
2016-Feb-03 22:25N 59°06' E 010°14'2 0.8
2016-Feb-03 19:34N 59°04' E 010°15'1414.2
2016-Feb-03 18:34N 59°02' E 010°42'1514.8
2016-Feb-03 17:34N 58°56' E 011°09'3 2.8
2016-Feb-03 16:33N 58°57' E 011°04'1514.5
2016-Feb-03 15:33N 59°01' E 010°37'13 5.4
2016-Feb-03 13:12N 59°06' E 010°14'812.4
2016-Feb-03 12:34N 59°01' E 010°26'1515.0
2016-Feb-03 11:33N 59°01' E 010°55'9 9.1
2016-Feb-03 10:33N 58°56' E 011°10'5 4.5
2016-Feb-03 09:34N 58°58' E 011°02'1515.4
2016-Feb-03 08:33N 59°01' E 010°33'12 5.5
2016-Feb-03 06:26N 59°07' E 010°14'2 0.1
2016-Feb-02 13:27N 59°05' E 010°15'1010.8
2016-Feb-02 12:33N 59°01' E 010°31'1312.9
2016-Feb-02 11:34N 59°00' E 010°56'8 8.3
2016-Feb-02 10:34N 58°56' E 011°10'5 4.9
2016-Feb-02 09:33N 58°58' E 011°02'1414.4
2016-Feb-02 08:33N 59°01' E 010°34'13 1.0
2016-Feb-01 20:05N 59°08' E 010°14'3 5.8
2016-Feb-01 19:33N 59°05' E 010°15'1313.0
2016-Feb-01 18:33N 59°02' E 010°39'1515.5
2016-Feb-01 17:34N 58°56' E 011°07'2 1.5
2016-Feb-01 16:33N 58°57' E 011°05'1515.2
2016-Feb-01 15:33N 59°01' E 010°36'13 5.6
2016-Feb-01 13:14N 59°07' E 010°14'812.3
2016-Feb-01 12:34N 59°01' E 010°25'1615.9
2016-Feb-01 11:34N 59°00' E 010°56'9 7.7
2016-Feb-01 10:27N 58°56' E 011°10'5 6.0
2016-Feb-01 09:33N 58°59' E 011°01'1515.1
2016-Feb-01 08:33N 59°01' E 010°32'11 5.6
2016-Feb-01 06:32N 59°07' E 010°14'1 0.4
2016-Feb-01 05:12N 59°06' E 010°14'0 0.0
2016-Feb-01 04:28N 59°06' E 010°14'2 0.2
2016-Jan-31 19:34N 59°04' E 010°15'1414.2
2016-Jan-31 18:34N 59°01' E 010°42'1514.8
2016-Jan-31 17:34N 58°56' E 011°08'2 2.2
2016-Jan-31 16:33N 58°57' E 011°04'1515.1
2016-Jan-31 15:33N 59°01' E 010°36'12 5.1
2016-Jan-31 13:11N 59°05' E 010°15'913.5
2016-Jan-31 12:34N 59°01' E 010°29'1615.6
2016-Jan-31 11:34N 58°60' E 010°59'7 6.8
2016-Jan-31 10:34N 58°56' E 011°10'6 5.6
2016-Jan-31 09:34N 58°59' E 011°01'1514.8
2016-Jan-31 08:34N 59°00' E 010°32'10 0.8
2016-Jan-30 19:33N 59°05' E 010°15'1313.3
2016-Jan-30 18:34N 59°01' E 010°39'1515.1
2016-Jan-30 17:34N 58°56' E 011°07'2 1.6
2016-Jan-30 16:34N 58°57' E 011°04'1514.7
2016-Jan-30 15:33N 59°01' E 010°36'12 4.8
2016-Jan-30 13:05N 59°05' E 010°15'713.2
2016-Jan-30 12:33N 59°01' E 010°26'1515.0
2016-Jan-30 11:34N 59°01' E 010°55'9 9.1
2016-Jan-30 10:34N 58°56' E 011°10'7 6.7
2016-Jan-30 09:33N 58°60' E 010°59'1514.5
2016-Jan-30 08:34N 59°00' E 010°31'11 0.6
2016-Jan-29 13:16N 59°07' E 010°14'912.3
2016-Jan-29 12:33N 59°00' E 010°25'1514.7
2016-Jan-29 11:33N 59°01' E 010°53'10 9.8
2016-Jan-29 10:34N 58°56' E 011°10'6 5.9
2016-Jan-29 09:34N 58°59' E 011°01'1515.3
2016-Jan-29 08:33N 59°00' E 010°31'8 0.6
2016-Jan-28 19:31N 59°03' E 010°15'1414.5
2016-Jan-28 18:33N 59°02' E 010°42'1514.7
2016-Jan-28 17:33N 58°56' E 011°08'1 1.5
2016-Jan-28 16:34N 58°56' E 011°05'1515.3
2016-Jan-28 15:34N 59°01' E 010°37'7 2.2
2016-Jan-28 12:33N 59°01' E 010°24'1616.1
2016-Jan-28 11:34N 59°00' E 010°55'9 8.9
2016-Jan-28 10:34N 58°56' E 011°10'5 5.1
2016-Jan-28 09:34N 58°59' E 011°02'1514.9
2016-Jan-28 08:33N 59°01' E 010°33'11 0.8
2016-Jan-27 19:33N 59°05' E 010°14'1414.1
2016-Jan-27 18:34N 59°01' E 010°41'1615.7
2016-Jan-27 17:34N 58°56' E 011°09'3 2.9
2016-Jan-27 16:33N 58°57' E 011°04'1414.0
2016-Jan-27 15:33N 59°01' E 010°38'13 5.9
2016-Jan-27 13:18N 59°06' E 010°14'912.6
2016-Jan-27 12:34N 59°01' E 010°29'1414.4
2016-Jan-27 11:34N 59°00' E 010°57'8 7.7
2016-Jan-27 10:31N 58°56' E 011°10'5 5.5
2016-Jan-27 09:33N 58°59' E 011°01'1515.4
2016-Jan-27 08:33N 59°00' E 010°32'10 0.8
2016-Jan-26 19:33N 59°05' E 010°15'  

Dump ship's entire track history